sensor_id;sensor_type;location;lat;lon;timestamp;P1;durP1;ratioP1;P2;durP2;ratioP2
47309;SDS011;33046;52.270;6.832;2022-12-13T00:00:57;37.63;;;22.57;;
47309;SDS011;33046;52.270;6.832;2022-12-13T00:03:04;37.75;;;23.45;;
47309;SDS011;33046;52.270;6.832;2022-12-13T00:05:12;41.77;;;25.10;;
47309;SDS011;33046;52.270;6.832;2022-12-13T00:07:20;37.30;;;23.67;;
47309;SDS011;33046;52.270;6.832;2022-12-13T00:09:27;41.00;;;24.93;;
47309;SDS011;33046;52.270;6.832;2022-12-13T00:11:33;42.60;;;26.47;;
47309;SDS011;33046;52.270;6.832;2022-12-13T00:13:42;42.13;;;25.05;;
47309;SDS011;33046;52.270;6.832;2022-12-13T00:15:54;38.60;;;24.33;;
47309;SDS011;33046;52.270;6.832;2022-12-13T00:18:01;40.22;;;25.80;;
47309;SDS011;33046;52.270;6.832;2022-12-13T00:20:08;40.13;;;26.08;;
47309;SDS011;33046;52.270;6.832;2022-12-13T00:22:16;40.35;;;25.70;;
47309;SDS011;33046;52.270;6.832;2022-12-13T00:24:23;44.28;;;24.52;;
47309;SDS011;33046;52.270;6.832;2022-12-13T00:26:30;37.65;;;23.92;;
47309;SDS011;33046;52.270;6.832;2022-12-13T00:28:38;44.63;;;26.50;;
47309;SDS011;33046;52.270;6.832;2022-12-13T00:30:47;40.97;;;25.08;;
47309;SDS011;33046;52.270;6.832;2022-12-13T00:32:54;41.90;;;24.30;;
47309;SDS011;33046;52.270;6.832;2022-12-13T00:35:01;43.67;;;26.83;;
47309;SDS011;33046;52.270;6.832;2022-12-13T00:37:08;39.38;;;24.40;;
47309;SDS011;33046;52.270;6.832;2022-12-13T00:39:15;41.50;;;24.27;;
47309;SDS011;33046;52.270;6.832;2022-12-13T00:41:22;40.95;;;24.63;;
47309;SDS011;33046;52.270;6.832;2022-12-13T00:43:29;40.50;;;25.58;;
47309;SDS011;33046;52.270;6.832;2022-12-13T00:45:36;41.03;;;26.15;;
47309;SDS011;33046;52.270;6.832;2022-12-13T00:47:44;38.10;;;25.55;;
47309;SDS011;33046;52.270;6.832;2022-12-13T00:49:51;39.70;;;26.63;;
47309;SDS011;33046;52.270;6.832;2022-12-13T00:51:58;42.38;;;25.05;;
47309;SDS011;33046;52.270;6.832;2022-12-13T00:54:05;35.63;;;23.67;;
47309;SDS011;33046;52.270;6.832;2022-12-13T00:56:12;48.28;;;26.15;;
47309;SDS011;33046;52.270;6.832;2022-12-13T00:58:21;39.70;;;24.25;;
47309;SDS011;33046;52.270;6.832;2022-12-13T01:00:28;35.85;;;23.85;;
47309;SDS011;33046;52.270;6.832;2022-12-13T01:02:34;39.20;;;24.95;;
47309;SDS011;33046;52.270;6.832;2022-12-13T01:04:42;43.08;;;24.45;;
47309;SDS011;33046;52.270;6.832;2022-12-13T01:06:49;42.03;;;25.10;;
47309;SDS011;33046;52.270;6.832;2022-12-13T01:08:56;38.92;;;24.70;;
47309;SDS011;33046;52.270;6.832;2022-12-13T01:11:03;37.97;;;25.50;;
47309;SDS011;33046;52.270;6.832;2022-12-13T01:13:11;38.47;;;24.53;;
47309;SDS011;33046;52.270;6.832;2022-12-13T01:15:18;38.47;;;23.60;;
47309;SDS011;33046;52.270;6.832;2022-12-13T01:17:25;39.92;;;24.70;;
47309;SDS011;33046;52.270;6.832;2022-12-13T01:19:32;43.85;;;25.60;;
47309;SDS011;33046;52.270;6.832;2022-12-13T01:21:40;37.85;;;23.55;;
47309;SDS011;33046;52.270;6.832;2022-12-13T01:23:47;38.80;;;23.25;;
47309;SDS011;33046;52.270;6.832;2022-12-13T01:25:54;37.55;;;22.55;;
47309;SDS011;33046;52.270;6.832;2022-12-13T01:28:02;40.25;;;23.90;;
47309;SDS011;33046;52.270;6.832;2022-12-13T01:30:09;43.30;;;25.48;;
47309;SDS011;33046;52.270;6.832;2022-12-13T01:32:16;42.13;;;25.42;;
47309;SDS011;33046;52.270;6.832;2022-12-13T01:34:23;47.95;;;26.17;;
47309;SDS011;33046;52.270;6.832;2022-12-13T01:36:30;45.05;;;24.63;;
47309;SDS011;33046;52.270;6.832;2022-12-13T01:38:38;41.40;;;22.63;;
47309;SDS011;33046;52.270;6.832;2022-12-13T01:40:45;33.05;;;23.40;;
47309;SDS011;33046;52.270;6.832;2022-12-13T01:42:53;42.50;;;25.50;;
47309;SDS011;33046;52.270;6.832;2022-12-13T01:45:01;42.55;;;24.70;;
47309;SDS011;33046;52.270;6.832;2022-12-13T01:47:27;39.85;;;25.67;;
47309;SDS011;33046;52.270;6.832;2022-12-13T01:49:38;39.53;;;25.27;;
47309;SDS011;33046;52.270;6.832;2022-12-13T01:51:46;36.35;;;24.10;;
47309;SDS011;33046;52.270;6.832;2022-12-13T01:53:59;38.13;;;22.27;;
47309;SDS011;33046;52.270;6.832;2022-12-13T01:56:08;40.50;;;24.38;;
47309;SDS011;33046;52.270;6.832;2022-12-13T01:58:18;39.25;;;23.08;;
47309;SDS011;33046;52.270;6.832;2022-12-13T02:00:26;38.47;;;23.17;;
47309;SDS011;33046;52.270;6.832;2022-12-13T02:02:34;35.80;;;24.65;;
47309;SDS011;33046;52.270;6.832;2022-12-13T02:04:43;36.83;;;22.20;;
47309;SDS011;33046;52.270;6.832;2022-12-13T02:06:57;37.28;;;22.48;;
47309;SDS011;33046;52.270;6.832;2022-12-13T02:09:06;38.97;;;24.25;;
47309;SDS011;33046;52.270;6.832;2022-12-13T02:11:13;35.63;;;22.17;;
47309;SDS011;33046;52.270;6.832;2022-12-13T02:13:21;40.35;;;22.17;;
47309;SDS011;33046;52.270;6.832;2022-12-13T02:15:40;39.45;;;22.48;;
47309;SDS011;33046;52.270;6.832;2022-12-13T02:18:06;38.83;;;22.50;;
47309;SDS011;33046;52.270;6.832;2022-12-13T02:20:28;40.10;;;23.88;;
47309;SDS011;33046;52.270;6.832;2022-12-13T02:22:51;37.95;;;24.08;;
47309;SDS011;33046;52.270;6.832;2022-12-13T02:25:18;36.88;;;22.35;;
47309;SDS011;33046;52.270;6.832;2022-12-13T02:27:55;37.40;;;22.67;;
47309;SDS011;33046;52.270;6.832;2022-12-13T02:30:22;38.15;;;23.20;;
47309;SDS011;33046;52.270;6.832;2022-12-13T02:32:33;36.63;;;21.33;;
47309;SDS011;33046;52.270;6.832;2022-12-13T02:36:55;37.13;;;22.38;;
47309;SDS011;33046;52.270;6.832;2022-12-13T02:39:07;33.95;;;19.85;;
47309;SDS011;33046;52.270;6.832;2022-12-13T02:41:18;36.10;;;20.87;;
47309;SDS011;33046;52.270;6.832;2022-12-13T02:43:33;36.97;;;22.90;;
47309;SDS011;33046;52.270;6.832;2022-12-13T02:45:46;33.85;;;21.60;;
47309;SDS011;33046;52.270;6.832;2022-12-13T02:47:54;36.93;;;22.00;;
47309;SDS011;33046;52.270;6.832;2022-12-13T02:50:06;31.50;;;19.57;;
47309;SDS011;33046;52.270;6.832;2022-12-13T02:52:16;32.50;;;20.20;;
47309;SDS011;33046;52.270;6.832;2022-12-13T02:54:26;35.88;;;20.10;;
47309;SDS011;33046;52.270;6.832;2022-12-13T02:56:33;30.08;;;20.08;;
47309;SDS011;33046;52.270;6.832;2022-12-13T02:58:41;33.25;;;20.95;;
47309;SDS011;33046;52.270;6.832;2022-12-13T03:00:55;34.85;;;20.58;;
47309;SDS011;33046;52.270;6.832;2022-12-13T03:03:11;35.80;;;21.80;;
47309;SDS011;33046;52.270;6.832;2022-12-13T03:05:30;35.60;;;21.85;;
47309;SDS011;33046;52.270;6.832;2022-12-13T03:07:43;34.37;;;21.70;;
47309;SDS011;33046;52.270;6.832;2022-12-13T03:10:01;34.45;;;21.23;;
47309;SDS011;33046;52.270;6.832;2022-12-13T03:12:18;32.70;;;20.77;;
47309;SDS011;33046;52.270;6.832;2022-12-13T03:14:31;34.00;;;20.92;;
47309;SDS011;33046;52.270;6.832;2022-12-13T03:16:43;32.10;;;19.83;;
47309;SDS011;33046;52.270;6.832;2022-12-13T03:18:57;30.40;;;20.60;;
47309;SDS011;33046;52.270;6.832;2022-12-13T03:21:06;32.03;;;21.27;;
47309;SDS011;33046;52.270;6.832;2022-12-13T03:23:14;34.70;;;20.00;;
47309;SDS011;33046;52.270;6.832;2022-12-13T03:25:25;35.85;;;21.05;;
47309;SDS011;33046;52.270;6.832;2022-12-13T03:27:35;33.10;;;21.55;;
47309;SDS011;33046;52.270;6.832;2022-12-13T03:29:42;33.22;;;21.40;;
47309;SDS011;33046;52.270;6.832;2022-12-13T03:31:51;32.20;;;20.42;;
47309;SDS011;33046;52.270;6.832;2022-12-13T03:33:57;33.20;;;20.93;;
47309;SDS011;33046;52.270;6.832;2022-12-13T03:36:04;34.60;;;19.50;;
47309;SDS011;33046;52.270;6.832;2022-12-13T03:38:13;34.87;;;21.27;;
47309;SDS011;33046;52.270;6.832;2022-12-13T03:40:21;34.43;;;19.97;;
47309;SDS011;33046;52.270;6.832;2022-12-13T03:42:30;28.50;;;19.50;;
47309;SDS011;33046;52.270;6.832;2022-12-13T03:44:37;32.27;;;20.50;;
47309;SDS011;33046;52.270;6.832;2022-12-13T03:46:43;32.28;;;20.58;;
47309;SDS011;33046;52.270;6.832;2022-12-13T03:48:51;34.00;;;20.37;;
47309;SDS011;33046;52.270;6.832;2022-12-13T03:50:58;33.97;;;19.97;;
47309;SDS011;33046;52.270;6.832;2022-12-13T03:53:05;31.50;;;20.00;;
47309;SDS011;33046;52.270;6.832;2022-12-13T03:55:12;31.90;;;20.65;;
47309;SDS011;33046;52.270;6.832;2022-12-13T03:57:19;33.03;;;21.43;;
47309;SDS011;33046;52.270;6.832;2022-12-13T03:59:26;30.53;;;19.97;;
47309;SDS011;33046;52.270;6.832;2022-12-13T04:01:33;38.37;;;20.90;;
47309;SDS011;33046;52.270;6.832;2022-12-13T04:03:40;31.70;;;21.27;;
47309;SDS011;33046;52.270;6.832;2022-12-13T04:05:49;29.60;;;19.30;;
47309;SDS011;33046;52.270;6.832;2022-12-13T04:07:56;27.37;;;18.53;;
47309;SDS011;33046;52.270;6.832;2022-12-13T04:10:03;32.07;;;19.43;;
47309;SDS011;33046;52.270;6.832;2022-12-13T04:12:11;34.47;;;19.87;;
47309;SDS011;33046;52.270;6.832;2022-12-13T04:14:18;31.90;;;20.42;;
47309;SDS011;33046;52.270;6.832;2022-12-13T04:16:24;30.53;;;19.27;;
47309;SDS011;33046;52.270;6.832;2022-12-13T04:18:31;34.55;;;19.85;;
47309;SDS011;33046;52.270;6.832;2022-12-13T04:20:38;33.03;;;20.47;;
47309;SDS011;33046;52.270;6.832;2022-12-13T04:22:46;31.87;;;22.00;;
47309;SDS011;33046;52.270;6.832;2022-12-13T04:24:53;32.03;;;20.70;;
47309;SDS011;33046;52.270;6.832;2022-12-13T04:27:00;27.43;;;19.80;;
47309;SDS011;33046;52.270;6.832;2022-12-13T04:29:07;32.92;;;21.15;;
47309;SDS011;33046;52.270;6.832;2022-12-13T04:31:13;35.63;;;21.57;;
47309;SDS011;33046;52.270;6.832;2022-12-13T04:33:20;35.53;;;18.90;;
47309;SDS011;33046;52.270;6.832;2022-12-13T04:35:27;28.53;;;18.37;;
47309;SDS011;33046;52.270;6.832;2022-12-13T04:37:34;31.63;;;19.13;;
47309;SDS011;33046;52.270;6.832;2022-12-13T04:39:42;31.70;;;20.07;;
47309;SDS011;33046;52.270;6.832;2022-12-13T04:41:50;31.87;;;18.77;;
47309;SDS011;33046;52.270;6.832;2022-12-13T04:43:57;36.47;;;19.10;;
47309;SDS011;33046;52.270;6.832;2022-12-13T04:46:04;31.73;;;19.13;;
47309;SDS011;33046;52.270;6.832;2022-12-13T04:48:11;33.33;;;20.87;;
47309;SDS011;33046;52.270;6.832;2022-12-13T04:50:18;30.95;;;19.25;;
47309;SDS011;33046;52.270;6.832;2022-12-13T04:52:24;32.40;;;20.03;;
47309;SDS011;33046;52.270;6.832;2022-12-13T04:54:31;35.87;;;21.53;;
47309;SDS011;33046;52.270;6.832;2022-12-13T04:56:40;32.97;;;21.60;;
47309;SDS011;33046;52.270;6.832;2022-12-13T04:58:47;29.97;;;18.33;;
47309;SDS011;33046;52.270;6.832;2022-12-13T05:00:54;31.07;;;20.23;;
47309;SDS011;33046;52.270;6.832;2022-12-13T05:03:01;37.33;;;21.77;;
47309;SDS011;33046;52.270;6.832;2022-12-13T05:05:08;30.33;;;21.47;;
47309;SDS011;33046;52.270;6.832;2022-12-13T05:07:15;37.50;;;20.07;;
47309;SDS011;33046;52.270;6.832;2022-12-13T05:09:22;30.90;;;21.57;;
47309;SDS011;33046;52.270;6.832;2022-12-13T05:11:29;31.70;;;18.77;;
47309;SDS011;33046;52.270;6.832;2022-12-13T05:13:38;28.87;;;18.43;;
47309;SDS011;33046;52.270;6.832;2022-12-13T05:15:44;35.85;;;19.85;;
47309;SDS011;33046;52.270;6.832;2022-12-13T05:17:53;35.70;;;19.80;;
47309;SDS011;33046;52.270;6.832;2022-12-13T05:20:00;30.83;;;18.57;;
47309;SDS011;33046;52.270;6.832;2022-12-13T05:22:08;28.53;;;18.33;;
47309;SDS011;33046;52.270;6.832;2022-12-13T05:24:16;31.03;;;17.47;;
47309;SDS011;33046;52.270;6.832;2022-12-13T05:26:23;30.60;;;18.67;;
47309;SDS011;33046;52.270;6.832;2022-12-13T05:28:30;29.13;;;17.40;;
47309;SDS011;33046;52.270;6.832;2022-12-13T05:30:39;32.07;;;19.97;;
47309;SDS011;33046;52.270;6.832;2022-12-13T05:32:46;30.03;;;19.13;;
47309;SDS011;33046;52.270;6.832;2022-12-13T05:34:53;29.07;;;18.23;;
47309;SDS011;33046;52.270;6.832;2022-12-13T05:37:00;29.30;;;18.07;;
47309;SDS011;33046;52.270;6.832;2022-12-13T05:39:06;27.80;;;18.37;;
47309;SDS011;33046;52.270;6.832;2022-12-13T05:41:14;29.17;;;18.60;;
47309;SDS011;33046;52.270;6.832;2022-12-13T05:43:23;29.63;;;19.67;;
47309;SDS011;33046;52.270;6.832;2022-12-13T05:45:30;32.50;;;19.53;;
47309;SDS011;33046;52.270;6.832;2022-12-13T05:47:39;29.63;;;18.53;;
47309;SDS011;33046;52.270;6.832;2022-12-13T05:49:47;28.80;;;18.13;;
47309;SDS011;33046;52.270;6.832;2022-12-13T05:51:54;26.37;;;18.20;;
47309;SDS011;33046;52.270;6.832;2022-12-13T05:54:01;29.90;;;17.83;;
47309;SDS011;33046;52.270;6.832;2022-12-13T05:56:08;29.50;;;19.00;;
47309;SDS011;33046;52.270;6.832;2022-12-13T05:58:16;28.43;;;17.53;;
47309;SDS011;33046;52.270;6.832;2022-12-13T06:00:22;30.13;;;17.10;;
47309;SDS011;33046;52.270;6.832;2022-12-13T06:02:30;30.17;;;17.07;;
47309;SDS011;33046;52.270;6.832;2022-12-13T06:04:38;26.60;;;17.63;;
47309;SDS011;33046;52.270;6.832;2022-12-13T06:06:45;31.50;;;20.43;;
47309;SDS011;33046;52.270;6.832;2022-12-13T06:08:52;30.37;;;19.00;;
47309;SDS011;33046;52.270;6.832;2022-12-13T06:10:59;31.13;;;17.37;;
47309;SDS011;33046;52.270;6.832;2022-12-13T06:13:07;26.33;;;18.13;;
47309;SDS011;33046;52.270;6.832;2022-12-13T06:15:15;28.63;;;18.17;;
47309;SDS011;33046;52.270;6.832;2022-12-13T06:17:22;29.30;;;19.37;;
47309;SDS011;33046;52.270;6.832;2022-12-13T06:19:29;32.77;;;19.33;;
47309;SDS011;33046;52.270;6.832;2022-12-13T06:21:37;28.97;;;18.00;;
47309;SDS011;33046;52.270;6.832;2022-12-13T06:23:48;27.80;;;16.13;;
47309;SDS011;33046;52.270;6.832;2022-12-13T06:25:55;26.60;;;16.77;;
47309;SDS011;33046;52.270;6.832;2022-12-13T06:28:03;27.67;;;17.77;;
47309;SDS011;33046;52.270;6.832;2022-12-13T06:30:10;31.02;;;19.98;;
47309;SDS011;33046;52.270;6.832;2022-12-13T06:32:17;28.57;;;16.73;;
47309;SDS011;33046;52.270;6.832;2022-12-13T06:34:24;31.80;;;18.37;;
47309;SDS011;33046;52.270;6.832;2022-12-13T06:36:31;30.87;;;17.60;;
47309;SDS011;33046;52.270;6.832;2022-12-13T06:38:39;32.10;;;18.57;;
47309;SDS011;33046;52.270;6.832;2022-12-13T06:40:46;32.77;;;19.83;;
47309;SDS011;33046;52.270;6.832;2022-12-13T06:42:53;29.47;;;19.27;;
47309;SDS011;33046;52.270;6.832;2022-12-13T06:45:00;26.77;;;15.80;;
47309;SDS011;33046;52.270;6.832;2022-12-13T06:47:06;28.57;;;17.47;;
47309;SDS011;33046;52.270;6.832;2022-12-13T06:49:14;25.53;;;16.97;;
47309;SDS011;33046;52.270;6.832;2022-12-13T06:51:21;31.10;;;16.47;;
47309;SDS011;33046;52.270;6.832;2022-12-13T06:53:29;24.40;;;16.70;;
47309;SDS011;33046;52.270;6.832;2022-12-13T06:55:38;29.97;;;18.27;;
47309;SDS011;33046;52.270;6.832;2022-12-13T06:57:44;33.03;;;18.10;;
47309;SDS011;33046;52.270;6.832;2022-12-13T06:59:51;31.17;;;17.53;;
47309;SDS011;33046;52.270;6.832;2022-12-13T07:01:58;34.90;;;17.93;;
47309;SDS011;33046;52.270;6.832;2022-12-13T07:04:05;30.10;;;16.20;;
47309;SDS011;33046;52.270;6.832;2022-12-13T07:06:13;34.13;;;17.77;;
47309;SDS011;33046;52.270;6.832;2022-12-13T07:08:21;40.97;;;19.30;;
47309;SDS011;33046;52.270;6.832;2022-12-13T07:10:28;29.27;;;16.90;;
47309;SDS011;33046;52.270;6.832;2022-12-13T07:12:36;33.30;;;17.70;;
47309;SDS011;33046;52.270;6.832;2022-12-13T07:14:43;26.67;;;16.67;;
47309;SDS011;33046;52.270;6.832;2022-12-13T07:16:49;25.23;;;17.13;;
47309;SDS011;33046;52.270;6.832;2022-12-13T07:18:56;31.00;;;19.87;;
47309;SDS011;33046;52.270;6.832;2022-12-13T07:21:05;29.17;;;19.50;;
47309;SDS011;33046;52.270;6.832;2022-12-13T07:23:13;31.40;;;18.57;;
47309;SDS011;33046;52.270;6.832;2022-12-13T07:25:19;31.63;;;17.20;;
47309;SDS011;33046;52.270;6.832;2022-12-13T07:27:26;28.87;;;17.53;;
47309;SDS011;33046;52.270;6.832;2022-12-13T07:29:35;29.40;;;17.40;;
47309;SDS011;33046;52.270;6.832;2022-12-13T07:31:42;25.17;;;17.70;;
47309;SDS011;33046;52.270;6.832;2022-12-13T07:33:49;32.50;;;20.00;;
47309;SDS011;33046;52.270;6.832;2022-12-13T07:35:58;33.87;;;20.27;;
47309;SDS011;33046;52.270;6.832;2022-12-13T07:38:05;30.63;;;19.00;;
47309;SDS011;33046;52.270;6.832;2022-12-13T07:40:13;26.80;;;17.13;;
47309;SDS011;33046;52.270;6.832;2022-12-13T07:42:20;31.23;;;19.10;;
47309;SDS011;33046;52.270;6.832;2022-12-13T07:44:27;27.77;;;16.90;;
47309;SDS011;33046;52.270;6.832;2022-12-13T07:46:35;33.33;;;17.90;;
47309;SDS011;33046;52.270;6.832;2022-12-13T07:48:42;29.87;;;18.37;;
47309;SDS011;33046;52.270;6.832;2022-12-13T07:50:48;27.13;;;16.47;;
47309;SDS011;33046;52.270;6.832;2022-12-13T07:52:55;30.43;;;17.93;;
47309;SDS011;33046;52.270;6.832;2022-12-13T07:55:02;32.57;;;18.50;;
47309;SDS011;33046;52.270;6.832;2022-12-13T07:57:09;27.47;;;16.93;;
47309;SDS011;33046;52.270;6.832;2022-12-13T07:59:16;39.97;;;20.13;;
47309;SDS011;33046;52.270;6.832;2022-12-13T08:01:23;30.60;;;18.80;;
47309;SDS011;33046;52.270;6.832;2022-12-13T08:03:31;32.17;;;18.03;;
47309;SDS011;33046;52.270;6.832;2022-12-13T08:05:38;32.53;;;19.50;;
47309;SDS011;33046;52.270;6.832;2022-12-13T08:07:45;34.10;;;18.93;;
47309;SDS011;33046;52.270;6.832;2022-12-13T08:09:51;34.80;;;20.27;;
47309;SDS011;33046;52.270;6.832;2022-12-13T08:11:58;29.23;;;19.00;;
47309;SDS011;33046;52.270;6.832;2022-12-13T08:14:06;29.63;;;19.47;;
47309;SDS011;33046;52.270;6.832;2022-12-13T08:16:13;34.33;;;19.43;;
47309;SDS011;33046;52.270;6.832;2022-12-13T08:18:20;33.10;;;19.57;;
47309;SDS011;33046;52.270;6.832;2022-12-13T08:20:28;30.80;;;19.07;;
47309;SDS011;33046;52.270;6.832;2022-12-13T08:22:35;31.97;;;20.47;;
47309;SDS011;33046;52.270;6.832;2022-12-13T08:24:42;32.50;;;20.30;;
47309;SDS011;33046;52.270;6.832;2022-12-13T08:26:49;32.67;;;19.43;;
47309;SDS011;33046;52.270;6.832;2022-12-13T08:28:56;33.10;;;20.03;;
47309;SDS011;33046;52.270;6.832;2022-12-13T08:31:03;29.23;;;19.43;;
47309;SDS011;33046;52.270;6.832;2022-12-13T08:33:11;33.03;;;22.23;;
47309;SDS011;33046;52.270;6.832;2022-12-13T08:35:18;32.23;;;19.37;;
47309;SDS011;33046;52.270;6.832;2022-12-13T08:37:26;29.67;;;18.20;;
47309;SDS011;33046;52.270;6.832;2022-12-13T08:39:33;32.03;;;19.60;;
47309;SDS011;33046;52.270;6.832;2022-12-13T08:41:43;31.30;;;18.97;;
47309;SDS011;33046;52.270;6.832;2022-12-13T08:43:50;30.30;;;18.57;;
47309;SDS011;33046;52.270;6.832;2022-12-13T08:45:56;30.77;;;20.40;;
47309;SDS011;33046;52.270;6.832;2022-12-13T08:48:03;28.40;;;18.47;;
47309;SDS011;33046;52.270;6.832;2022-12-13T08:50:10;33.60;;;20.33;;
47309;SDS011;33046;52.270;6.832;2022-12-13T08:52:17;30.57;;;18.90;;
47309;SDS011;33046;52.270;6.832;2022-12-13T08:54:26;33.57;;;17.87;;
47309;SDS011;33046;52.270;6.832;2022-12-13T08:56:33;30.70;;;19.00;;
47309;SDS011;33046;52.270;6.832;2022-12-13T08:58:40;31.70;;;20.43;;
47309;SDS011;33046;52.270;6.832;2022-12-13T09:00:47;34.50;;;19.73;;
47309;SDS011;33046;52.270;6.832;2022-12-13T09:02:55;31.07;;;21.00;;
47309;SDS011;33046;52.270;6.832;2022-12-13T09:05:01;34.30;;;20.93;;
47309;SDS011;33046;52.270;6.832;2022-12-13T09:07:08;34.73;;;21.23;;
47309;SDS011;33046;52.270;6.832;2022-12-13T09:09:15;30.60;;;19.07;;
47309;SDS011;33046;52.270;6.832;2022-12-13T09:11:23;32.70;;;19.73;;
47309;SDS011;33046;52.270;6.832;2022-12-13T09:13:31;30.70;;;20.23;;
47309;SDS011;33046;52.270;6.832;2022-12-13T09:15:39;32.00;;;20.37;;
47309;SDS011;33046;52.270;6.832;2022-12-13T09:17:46;32.13;;;19.43;;
47309;SDS011;33046;52.270;6.832;2022-12-13T09:19:53;34.17;;;21.57;;
47309;SDS011;33046;52.270;6.832;2022-12-13T09:22:00;31.13;;;20.73;;
47309;SDS011;33046;52.270;6.832;2022-12-13T09:24:07;31.27;;;20.93;;
47309;SDS011;33046;52.270;6.832;2022-12-13T09:26:14;30.73;;;19.83;;
47309;SDS011;33046;52.270;6.832;2022-12-13T09:28:23;38.13;;;22.77;;
47309;SDS011;33046;52.270;6.832;2022-12-13T09:30:29;37.70;;;21.87;;
47309;SDS011;33046;52.270;6.832;2022-12-13T09:32:36;35.30;;;21.23;;
47309;SDS011;33046;52.270;6.832;2022-12-13T09:34:43;30.90;;;20.57;;
47309;SDS011;33046;52.270;6.832;2022-12-13T09:36:50;37.47;;;23.77;;
47309;SDS011;33046;52.270;6.832;2022-12-13T09:38:57;38.17;;;21.90;;
47309;SDS011;33046;52.270;6.832;2022-12-13T09:41:07;35.77;;;22.47;;
47309;SDS011;33046;52.270;6.832;2022-12-13T09:43:23;39.57;;;23.37;;
47309;SDS011;33046;52.270;6.832;2022-12-13T09:45:36;34.47;;;23.27;;
47309;SDS011;33046;52.270;6.832;2022-12-13T09:47:49;33.67;;;22.05;;
47309;SDS011;33046;52.270;6.832;2022-12-13T09:49:58;34.47;;;22.73;;
47309;SDS011;33046;52.270;6.832;2022-12-13T09:52:06;39.83;;;21.53;;
47309;SDS011;33046;52.270;6.832;2022-12-13T09:54:22;36.57;;;23.23;;
47309;SDS011;33046;52.270;6.832;2022-12-13T09:56:30;37.43;;;24.43;;
47309;SDS011;33046;52.270;6.832;2022-12-13T09:58:40;36.13;;;23.40;;
47309;SDS011;33046;52.270;6.832;2022-12-13T10:00:47;36.00;;;23.67;;
47309;SDS011;33046;52.270;6.832;2022-12-13T10:02:57;38.13;;;25.57;;
47309;SDS011;33046;52.270;6.832;2022-12-13T10:05:11;39.30;;;24.13;;
47309;SDS011;33046;52.270;6.832;2022-12-13T10:07:22;40.73;;;25.93;;
47309;SDS011;33046;52.270;6.832;2022-12-13T10:09:30;35.67;;;22.20;;
47309;SDS011;33046;52.270;6.832;2022-12-13T10:11:44;37.77;;;24.17;;
47309;SDS011;33046;52.270;6.832;2022-12-13T10:13:58;37.23;;;22.90;;
47309;SDS011;33046;52.270;6.832;2022-12-13T10:16:08;41.40;;;26.20;;
47309;SDS011;33046;52.270;6.832;2022-12-13T10:18:20;42.27;;;26.83;;
47309;SDS011;33046;52.270;6.832;2022-12-13T10:20:32;38.63;;;26.23;;
47309;SDS011;33046;52.270;6.832;2022-12-13T10:22:39;43.53;;;26.63;;
47309;SDS011;33046;52.270;6.832;2022-12-13T10:24:47;39.80;;;26.40;;
47309;SDS011;33046;52.270;6.832;2022-12-13T10:26:55;38.63;;;25.52;;
47309;SDS011;33046;52.270;6.832;2022-12-13T10:29:04;36.90;;;26.08;;
47309;SDS011;33046;52.270;6.832;2022-12-13T10:31:14;41.88;;;27.40;;
47309;SDS011;33046;52.270;6.832;2022-12-13T10:33:24;40.60;;;26.17;;
47309;SDS011;33046;52.270;6.832;2022-12-13T10:35:33;41.08;;;25.50;;
47309;SDS011;33046;52.270;6.832;2022-12-13T10:37:42;41.53;;;27.20;;
47309;SDS011;33046;52.270;6.832;2022-12-13T10:39:49;38.42;;;27.65;;
47309;SDS011;33046;52.270;6.832;2022-12-13T10:42:01;39.55;;;26.70;;
47309;SDS011;33046;52.270;6.832;2022-12-13T10:44:20;36.58;;;25.52;;
47309;SDS011;33046;52.270;6.832;2022-12-13T10:46:28;44.33;;;26.73;;
47309;SDS011;33046;52.270;6.832;2022-12-13T10:48:36;42.88;;;27.60;;
47309;SDS011;33046;52.270;6.832;2022-12-13T10:50:54;42.67;;;27.65;;
47309;SDS011;33046;52.270;6.832;2022-12-13T10:53:02;38.78;;;25.30;;
47309;SDS011;33046;52.270;6.832;2022-12-13T10:55:16;36.42;;;26.98;;
47309;SDS011;33046;52.270;6.832;2022-12-13T10:57:30;40.58;;;26.98;;
47309;SDS011;33046;52.270;6.832;2022-12-13T10:59:39;37.05;;;25.70;;
47309;SDS011;33046;52.270;6.832;2022-12-13T11:01:47;37.45;;;25.77;;
47309;SDS011;33046;52.270;6.832;2022-12-13T11:03:55;39.45;;;26.08;;
47309;SDS011;33046;52.270;6.832;2022-12-13T11:06:04;39.45;;;26.33;;
47309;SDS011;33046;52.270;6.832;2022-12-13T11:08:19;36.15;;;24.40;;
47309;SDS011;33046;52.270;6.832;2022-12-13T11:10:28;37.10;;;25.35;;
47309;SDS011;33046;52.270;6.832;2022-12-13T11:12:35;34.67;;;23.33;;
47309;SDS011;33046;52.270;6.832;2022-12-13T11:14:48;36.70;;;23.48;;
47309;SDS011;33046;52.270;6.832;2022-12-13T11:17:07;32.58;;;20.75;;
47309;SDS011;33046;52.270;6.832;2022-12-13T11:19:20;34.47;;;22.95;;
47309;SDS011;33046;52.270;6.832;2022-12-13T11:21:31;34.33;;;23.67;;
47309;SDS011;33046;52.270;6.832;2022-12-13T11:23:42;34.90;;;24.05;;
47309;SDS011;33046;52.270;6.832;2022-12-13T11:25:53;35.20;;;24.50;;
47309;SDS011;33046;52.270;6.832;2022-12-13T11:28:07;35.42;;;23.92;;
47309;SDS011;33046;52.270;6.832;2022-12-13T11:30:23;31.88;;;23.17;;
47309;SDS011;33046;52.270;6.832;2022-12-13T11:32:41;32.65;;;23.17;;
47309;SDS011;33046;52.270;6.832;2022-12-13T11:35:07;33.55;;;23.92;;
47309;SDS011;33046;52.270;6.832;2022-12-13T11:37:23;32.83;;;23.95;;
47309;SDS011;33046;52.270;6.832;2022-12-13T11:39:34;35.47;;;23.67;;
47309;SDS011;33046;52.270;6.832;2022-12-13T11:41:47;35.08;;;23.50;;
47309;SDS011;33046;52.270;6.832;2022-12-13T11:43:58;36.00;;;24.88;;
47309;SDS011;33046;52.270;6.832;2022-12-13T11:46:12;35.40;;;23.38;;
47309;SDS011;33046;52.270;6.832;2022-12-13T11:48:23;31.42;;;22.23;;
47309;SDS011;33046;52.270;6.832;2022-12-13T11:50:39;36.13;;;23.50;;
47309;SDS011;33046;52.270;6.832;2022-12-13T11:52:49;31.95;;;23.80;;
47309;SDS011;33046;52.270;6.832;2022-12-13T11:54:59;39.40;;;26.75;;
47309;SDS011;33046;52.270;6.832;2022-12-13T11:57:11;36.35;;;23.88;;
47309;SDS011;33046;52.270;6.832;2022-12-13T11:59:25;37.80;;;24.80;;
47309;SDS011;33046;52.270;6.832;2022-12-13T12:01:41;34.17;;;24.40;;
47309;SDS011;33046;52.270;6.832;2022-12-13T12:03:53;31.08;;;22.92;;
47309;SDS011;33046;52.270;6.832;2022-12-13T12:06:07;31.73;;;24.00;;
47309;SDS011;33046;52.270;6.832;2022-12-13T12:08:20;32.47;;;22.92;;
47309;SDS011;33046;52.270;6.832;2022-12-13T12:10:35;34.72;;;25.08;;
47309;SDS011;33046;52.270;6.832;2022-12-13T12:12:50;36.40;;;26.25;;
47309;SDS011;33046;52.270;6.832;2022-12-13T12:15:04;37.35;;;26.63;;
47309;SDS011;33046;52.270;6.832;2022-12-13T12:17:19;43.28;;;29.42;;
47309;SDS011;33046;52.270;6.832;2022-12-13T12:19:32;38.45;;;27.42;;
47309;SDS011;33046;52.270;6.832;2022-12-13T12:21:48;35.90;;;25.13;;
47309;SDS011;33046;52.270;6.832;2022-12-13T12:24:23;35.60;;;24.50;;
47309;SDS011;33046;52.270;6.832;2022-12-13T12:26:39;32.88;;;22.77;;
47309;SDS011;33046;52.270;6.832;2022-12-13T12:29:09;32.70;;;23.35;;
47309;SDS011;33046;52.270;6.832;2022-12-13T12:31:28;31.55;;;21.70;;
47309;SDS011;33046;52.270;6.832;2022-12-13T12:33:45;31.50;;;21.48;;
47309;SDS011;33046;52.270;6.832;2022-12-13T12:36:02;29.80;;;20.50;;
47309;SDS011;33046;52.270;6.832;2022-12-13T12:38:25;33.25;;;23.08;;